This is the latest recevied weather packets stored in our database for station/object WX2P-13. If no packets are shown the sender has not sent any weather packets the latest 1 day(s).
| Time | Temp. | Humidity | Pressure | Rain* | Wind** | Luminosity | Snow |
|---|---|---|---|---|---|---|---|
| 1778078161 | 28.89° C | 68% | 1017.7 hPa | 0 mm | - | 665 W/m² | - |
| 1778077556 | 28.89° C | 69% | 1017.6 hPa | 0 mm | - | 654 W/m² | - |
| 1778076650 | 27.78° C | 71% | 1017.4 hPa | 0 mm | - | 592 W/m² | - |
| 1778075134 | 26.67° C | 76% | 1017.7 hPa | 0 mm | - | 474 W/m² | - |
| 1778074830 | 26.67° C | 77% | 1017.6 hPa | 0 mm | - | 449 W/m² | - |
| 1778072709 | 24.44° C | 82% | 1017.4 hPa | 0 mm | - | 123 W/m² | - |
| 1778071802 | 23.33° C | 84% | 1017.4 hPa | 0 mm | - | 151 W/m² | - |
| 1778070895 | 22.22° C | 86% | 1017.3 hPa | 0 mm | - | 85 W/m² | - |
| 1778069988 | 19.44° C | 94% | 1017.1 hPa | 0 mm | - | 61 W/m² | - |
| 1778069381 | 18.33° C | 96% | 1017.1 hPa | 0 mm | - | 51 W/m² | - |
| 1778068776 | 17.78° C | 97% | 1016.9 hPa | 0 mm | - | 44 W/m² | - |
| 1778068474 | 16.67° C | 97% | 1017 hPa | 0 mm | - | 49 W/m² | - |
| 1778068172 | 16.67° C | 97% | 1016.9 hPa | 0 mm | - | 35 W/m² | - |
| 1778067869 | 16.67° C | 97% | 1016.9 hPa | 0 mm | - | 26 W/m² | - |
| 1778066659 | 15.56° C | 97% | 1016.6 hPa | 0 mm | - | 14 W/m² | - |
| 1778066356 | 15.56° C | 97% | 1016.5 hPa | 0 mm | - | 13 W/m² | - |
| 1778065751 | 15.56° C | 97% | 1016.5 hPa | 0 mm | - | 10 W/m² | - |
| 1778065145 | 15.56° C | 97% | 1016.4 hPa | 0 mm | - | 3 W/m² | - |
| 1778064539 | 15.56° C | 97% | 1016.6 hPa | 0 mm | - | 0 W/m² | - |
| 1778062117 | 15.56° C | 97% | 1016 hPa | 0 mm | - | 0 W/m² | - |
| 1778061210 | 15.56° C | 97% | 1015.8 hPa | 0 mm | - | 0 W/m² | - |
| 1778060907 | 15.56° C | 97% | 1016.1 hPa | 0 mm | - | 0 W/m² | - |
| 1778060304 | 15.56° C | 96% | 1016.2 hPa | 0 mm | - | 0 W/m² | - |
| 1778059396 | 16.11° C | 96% | 1016.3 hPa | 0 mm | - | 0 W/m² | - |
| 1778059093 | 16.11° C | 96% | 1016 hPa | 0 mm | - | 0 W/m² | - |
* Rain latest hour (hover to see other rain measurements)
** Current wind speed in m/s (hover to see current wind gust speed)